createdAt,value
2022-11-15T00:02:07.477Z,95864.66
2022-11-15T00:17:27.094Z,95851.22
2022-11-15T00:32:46.841Z,95848.97
2022-11-15T00:48:06.558Z,95834.75
2022-11-15T01:03:26.457Z,95818.34
2022-11-15T01:18:46.552Z,95816.69
2022-11-15T01:34:06.752Z,95793.38
2022-11-15T01:49:26.688Z,95781.19
2022-11-15T02:04:46.657Z,95767.56
2022-11-15T02:20:06.523Z,95752.84
2022-11-15T02:35:26.371Z,95746.88
2022-11-15T02:50:46.100Z,95727.72
2022-11-15T03:06:06.008Z,95708.53
2022-11-15T03:21:25.757Z,95695.06
2022-11-15T03:36:45.528Z,95689.28
2022-11-15T03:52:05.612Z,95684.84
2022-11-15T04:07:25.538Z,95671.28
2022-11-15T04:23:04.673Z,95673.31
2022-11-15T04:38:24.762Z,95655.91
2022-11-15T04:53:44.595Z,95644.13
2022-11-15T05:09:04.538Z,95645.38
2022-11-15T05:24:24.463Z,95642.59
2022-11-15T05:39:44.185Z,95642.84
2022-11-15T05:55:04.160Z,95629.56
2022-11-15T06:10:24.136Z,95635.56
2022-11-15T06:25:44.940Z,95631.28
2022-11-15T06:41:05.205Z,95633.03
2022-11-15T06:56:24.982Z,95643.28
2022-11-15T07:11:44.857Z,95639.59
2022-11-15T07:27:04.676Z,95639.03
2022-11-15T07:42:43.306Z,95639.63
2022-11-15T07:58:03.571Z,95627.56
2022-11-15T08:13:23.679Z,95620.22
2022-11-15T08:28:43.543Z,95599.75
2022-11-15T08:44:03.473Z,95587.78
2022-11-15T08:59:23.491Z,95581.16
2022-11-15T09:14:43.387Z,95569.88
2022-11-15T09:30:03.641Z,95558.13
2022-11-15T09:45:23.427Z,95544.88
2022-11-15T10:00:48.096Z,95524.91
2022-11-15T10:15:49.996Z,95517.84
2022-11-15T10:30:51.440Z,95503.81
2022-11-15T10:46:24.696Z,95478.63
2022-11-15T11:01:27.231Z,95465.97
2022-11-15T11:16:28.671Z,95452.88
2022-11-15T11:31:30.114Z,95437.25
2022-11-15T11:46:31.484Z,95445.78
2022-11-15T12:01:32.931Z,95442.97
2022-11-15T12:16:34.377Z,95416.94
2022-11-15T12:31:35.778Z,95396.00
2022-11-15T12:46:37.146Z,95385.41
2022-11-15T13:01:38.663Z,95380.16
2022-11-15T13:16:40.080Z,95374.09
2022-11-15T13:31:41.460Z,95353.06
2022-11-15T13:46:42.820Z,95341.09
2022-11-15T14:01:44.478Z,95310.63
2022-11-15T14:16:45.920Z,95288.31
2022-11-15T14:31:47.500Z,95273.38
2022-11-15T14:46:49.418Z,95263.34
2022-11-15T15:01:50.946Z,95244.69
2022-11-15T15:16:52.349Z,95233.25
2022-11-15T15:31:53.636Z,95209.88
2022-11-15T15:46:55.100Z,95192.75
2022-11-15T16:01:57.271Z,95167.53
2022-11-15T16:16:58.587Z,95160.06
2022-11-15T16:31:59.915Z,95136.72
2022-11-15T16:47:01.270Z,95126.06
2022-11-15T17:02:02.645Z,95115.16
2022-11-15T17:17:03.977Z,95109.31
2022-11-15T17:32:05.417Z,95096.03
2022-11-15T17:47:09.385Z,95070.38
2022-11-15T18:02:13.177Z,95057.50
2022-11-15T18:17:14.572Z,95045.03
2022-11-15T18:32:18.217Z,95036.44
2022-11-15T18:47:19.696Z,95024.16
2022-11-15T19:02:21.229Z,95011.28
2022-11-15T19:17:23.658Z,95001.19
2022-11-15T19:32:25.022Z,94995.97
2022-11-15T19:47:27.652Z,94996.97
2022-11-15T20:02:29.100Z,94988.28
2022-11-15T20:17:30.503Z,94973.84
2022-11-15T20:32:32.129Z,94949.50
2022-11-15T20:47:33.501Z,94923.75
2022-11-15T21:02:34.923Z,94899.13
2022-11-15T21:17:36.313Z,94890.44
2022-11-15T21:32:39.074Z,94874.47
2022-11-15T21:47:44.771Z,94861.63
2022-11-15T22:02:48.203Z,94855.94
2022-11-15T22:17:59.037Z,94828.81
2022-11-15T22:33:00.387Z,94823.38
2022-11-15T22:48:01.714Z,94814.25
2022-11-15T23:03:03.088Z,94784.47
2022-11-15T23:18:04.394Z,94780.47
2022-11-15T23:33:24.684Z,94782.91
2022-11-15T23:48:27.427Z,94821.22
